createdAt,value
2019-03-27T00:01:47.302Z,3.50
2019-03-27T00:05:53.057Z,3.10
2019-03-27T00:09:58.957Z,2.73
2019-03-27T00:14:05.074Z,2.83
2019-03-27T00:18:10.967Z,1.87
2019-03-27T00:22:16.740Z,2.13
2019-03-27T00:26:22.645Z,3.47
2019-03-27T00:30:28.476Z,3.03
2019-03-27T00:34:34.162Z,2.70
2019-03-27T00:38:39.985Z,2.90
2019-03-27T00:42:45.988Z,2.80
2019-03-27T00:46:51.618Z,3.20
2019-03-27T00:50:57.528Z,2.80
2019-03-27T00:55:03.393Z,3.43
2019-03-27T00:59:09.326Z,3.00
2019-03-27T01:03:15.026Z,2.07
2019-03-27T01:07:20.554Z,2.50
2019-03-27T01:11:26.122Z,3.00
2019-03-27T01:15:39.697Z,2.43
2019-03-27T01:19:38.719Z,2.47
2019-03-27T01:23:44.485Z,3.03
2019-03-27T01:27:50.092Z,3.67
2019-03-27T01:31:55.559Z,3.07
2019-03-27T01:36:01.069Z,2.70
2019-03-27T01:40:06.849Z,3.10
2019-03-27T01:44:12.719Z,2.73
2019-03-27T01:48:18.220Z,2.20
2019-03-27T01:52:23.777Z,2.57
2019-03-27T01:56:29.252Z,2.73
2019-03-27T02:00:34.903Z,3.50
2019-03-27T02:04:40.751Z,2.93
2019-03-27T02:08:46.155Z,2.47
2019-03-27T02:12:51.874Z,4.17
2019-03-27T02:16:57.309Z,3.43
2019-03-27T02:21:03.184Z,3.03
2019-03-27T02:25:12.874Z,2.70
2019-03-27T02:29:18.893Z,2.53
2019-03-27T02:33:24.845Z,3.00
2019-03-27T02:37:30.564Z,2.10
2019-03-27T02:41:36.302Z,1.90
2019-03-27T02:45:42.255Z,3.27
2019-03-27T02:49:54.564Z,2.00
2019-03-27T02:54:00.131Z,2.93
2019-03-27T02:58:05.717Z,2.30
2019-03-27T03:02:11.156Z,2.97
2019-03-27T03:06:17.778Z,2.37
2019-03-27T03:10:23.427Z,2.17
2019-03-27T03:14:28.868Z,2.47
2019-03-27T03:18:34.446Z,3.03
2019-03-27T03:22:40.002Z,6.37
2019-03-27T03:26:50.240Z,4.97
2019-03-27T03:30:57.480Z,5.53
2019-03-27T03:35:02.994Z,5.23
2019-03-27T03:39:14.302Z,5.10
2019-03-27T03:43:19.777Z,5.20
2019-03-27T03:47:25.267Z,3.53
2019-03-27T03:51:31.334Z,3.87
2019-03-27T03:55:38.659Z,3.60
2019-03-27T03:59:44.817Z,2.80
2019-03-27T04:03:52.494Z,2.80
2019-03-27T04:07:58.397Z,3.73
2019-03-27T04:12:04.197Z,2.93
2019-03-27T04:16:11.777Z,3.10
2019-03-27T04:20:17.525Z,2.47
2019-03-27T04:24:23.323Z,3.20
2019-03-27T04:28:29.699Z,2.57
2019-03-27T04:32:39.094Z,2.70
2019-03-27T04:36:48.234Z,2.50
2019-03-27T04:40:54.024Z,2.47
2019-03-27T04:44:59.998Z,2.10
2019-03-27T04:49:07.692Z,3.00
2019-03-27T04:53:13.237Z,2.20
2019-03-27T04:57:18.926Z,3.10
2019-03-27T05:01:24.571Z,2.03
2019-03-27T05:05:43.426Z,2.27
2019-03-27T05:10:32.107Z,3.00
2019-03-27T05:14:37.554Z,3.07
2019-03-27T05:18:43.088Z,3.40
2019-03-27T05:22:48.530Z,2.80
2019-03-27T05:26:54.118Z,2.97
2019-03-27T05:30:59.518Z,3.20
2019-03-27T05:35:05.208Z,4.80
2019-03-27T05:39:10.661Z,3.10
2019-03-27T05:43:16.330Z,2.70
2019-03-27T05:47:22.702Z,3.30
2019-03-27T05:51:30.055Z,2.77
2019-03-27T05:55:35.527Z,3.23
2019-03-27T05:59:42.831Z,2.77
2019-03-27T06:03:49.274Z,2.90
2019-03-27T06:07:56.049Z,2.70
2019-03-27T06:12:02.515Z,3.10
2019-03-27T06:16:10.925Z,2.57
2019-03-27T06:20:17.305Z,3.07
2019-03-27T06:24:23.080Z,2.90
2019-03-27T06:28:33.782Z,3.07
2019-03-27T06:32:42.971Z,2.63
2019-03-27T06:36:48.490Z,2.90
2019-03-27T06:40:55.280Z,3.10
2019-03-27T06:45:04.286Z,3.17
2019-03-27T06:49:12.286Z,2.50
2019-03-27T06:53:21.220Z,3.60
2019-03-27T06:57:31.409Z,2.73
2019-03-27T07:01:37.333Z,3.20
2019-03-27T07:05:42.729Z,3.27
2019-03-27T07:09:50.855Z,3.70
2019-03-27T07:13:57.410Z,3.57
2019-03-27T07:18:03.918Z,4.10
2019-03-27T07:22:10.441Z,4.50
2019-03-27T07:26:15.991Z,4.93
2019-03-27T07:30:22.024Z,5.27
2019-03-27T07:34:27.466Z,6.80
2019-03-27T07:38:35.389Z,6.43
2019-03-27T07:42:41.675Z,3.80
2019-03-27T07:46:48.685Z,4.27
2019-03-27T07:50:56.079Z,3.77
2019-03-27T07:55:01.965Z,4.17
2019-03-27T07:59:08.416Z,3.87
2019-03-27T08:03:15.152Z,4.65
2019-03-27T08:07:27.010Z,8.25
2019-03-27T08:11:32.357Z,4.80
2019-03-27T08:15:40.893Z,3.00
2019-03-27T08:19:47.254Z,3.10
2019-03-27T08:23:53.625Z,3.20
2019-03-27T08:28:00.761Z,3.20
2019-03-27T08:32:07.409Z,2.30
2019-03-27T08:36:13.543Z,3.17
2019-03-27T08:40:19.884Z,3.30
2019-03-27T08:44:25.905Z,3.30
2019-03-27T08:48:32.607Z,2.30
2019-03-27T08:52:38.483Z,3.27
2019-03-27T08:56:44.582Z,2.10
2019-03-27T09:00:57.192Z,2.70
2019-03-27T09:05:03.521Z,2.40
2019-03-27T09:09:11.194Z,2.20
2019-03-27T09:13:18.390Z,2.27
2019-03-27T09:17:25.131Z,1.70
2019-03-27T09:21:32.005Z,2.40
2019-03-27T09:25:39.334Z,2.97
2019-03-27T09:29:46.128Z,2.73
2019-03-27T09:33:52.371Z,2.97
2019-03-27T09:37:58.169Z,2.60
2019-03-27T09:42:03.960Z,3.20
2019-03-27T09:46:09.865Z,2.47
2019-03-27T09:50:15.699Z,1.57
2019-03-27T09:54:21.621Z,2.80
2019-03-27T09:58:27.415Z,2.00
2019-03-27T10:02:33.190Z,1.90
2019-03-27T10:06:39.098Z,1.80
2019-03-27T10:10:44.918Z,1.80
2019-03-27T10:14:50.765Z,1.60
2019-03-27T10:18:56.652Z,1.83
2019-03-27T10:23:02.373Z,1.87
2019-03-27T10:27:08.071Z,2.00
2019-03-27T10:31:13.930Z,1.23
2019-03-27T10:35:19.903Z,1.67
2019-03-27T10:39:25.667Z,1.50
2019-03-27T10:43:31.587Z,1.90
2019-03-27T10:47:37.210Z,1.75
2019-03-27T10:51:43.085Z,1.70
2019-03-27T10:55:48.938Z,1.27
2019-03-27T10:59:55.842Z,1.47
2019-03-27T11:04:01.615Z,2.40
2019-03-27T11:08:11.086Z,2.10
2019-03-27T11:12:14.926Z,1.73
2019-03-27T11:16:20.817Z,1.47
2019-03-27T11:20:31.253Z,1.30
2019-03-27T11:24:34.311Z,1.83
2019-03-27T11:28:40.115Z,2.07
2019-03-27T11:33:04.509Z,1.37
2019-03-27T11:37:09.965Z,1.50
2019-03-27T11:41:15.549Z,1.17
2019-03-27T11:45:21.015Z,1.30
2019-03-27T11:49:26.512Z,1.70
2019-03-27T11:53:31.980Z,1.10
2019-03-27T11:57:38.098Z,1.90
2019-03-27T12:01:43.990Z,1.87
2019-03-27T12:05:49.612Z,1.50
2019-03-27T12:09:55.081Z,1.50
2019-03-27T12:14:01.227Z,1.20
2019-03-27T12:18:07.375Z,1.10
2019-03-27T12:22:13.060Z,2.17
2019-03-27T12:26:18.896Z,1.23
2019-03-27T12:30:26.796Z,1.40
2019-03-27T12:34:32.520Z,1.87
2019-03-27T12:38:38.181Z,1.70
2019-03-27T12:42:44.130Z,1.50
2019-03-27T12:46:51.835Z,1.63
2019-03-27T12:50:57.339Z,1.53
2019-03-27T12:55:03.275Z,1.50
2019-03-27T12:59:09.061Z,2.20
2019-03-27T13:03:14.794Z,1.90
2019-03-27T13:07:20.563Z,1.27
2019-03-27T13:11:26.264Z,1.97
2019-03-27T13:15:32.019Z,1.97
2019-03-27T13:19:37.882Z,2.07
2019-03-27T13:23:43.626Z,1.63
2019-03-27T13:27:49.337Z,1.83
2019-03-27T13:31:55.219Z,2.10
2019-03-27T13:36:01.110Z,1.70
2019-03-27T13:40:08.110Z,2.20
2019-03-27T13:44:13.556Z,1.73
2019-03-27T13:48:19.087Z,1.70
2019-03-27T13:52:24.629Z,1.70
2019-03-27T13:56:30.166Z,1.80
2019-03-27T14:00:35.974Z,1.70
2019-03-27T14:04:41.654Z,1.73
2019-03-27T14:08:47.078Z,1.90
2019-03-27T14:12:54.413Z,1.57
2019-03-27T14:16:59.846Z,1.93
2019-03-27T14:21:05.462Z,1.97
2019-03-27T14:25:11.550Z,2.40
2019-03-27T14:29:17.012Z,1.70
2019-03-27T14:33:31.337Z,1.80
2019-03-27T14:37:44.544Z,2.70
2019-03-27T14:42:08.929Z,2.00
2019-03-27T14:46:20.370Z,2.40
2019-03-27T14:50:25.951Z,5.40
2019-03-27T14:54:31.614Z,4.30
2019-03-27T14:58:37.103Z,5.43
2019-03-27T15:02:42.562Z,2.10
2019-03-27T15:06:48.166Z,2.50
2019-03-27T15:10:53.898Z,3.00
2019-03-27T15:14:59.492Z,3.10
2019-03-27T15:19:05.125Z,1.80
2019-03-27T15:23:10.714Z,2.33
2019-03-27T15:27:16.240Z,2.55
2019-03-27T15:31:21.911Z,3.23
2019-03-27T15:35:27.454Z,3.13
2019-03-27T15:39:32.930Z,1.80
2019-03-27T15:43:38.502Z,2.13
2019-03-27T15:47:43.974Z,1.87
2019-03-27T15:51:49.539Z,2.60
2019-03-27T15:55:55.005Z,2.57
2019-03-27T16:00:00.535Z,1.93
2019-03-27T16:04:06.010Z,2.73
2019-03-27T16:08:11.568Z,3.00
2019-03-27T16:12:17.013Z,2.47
2019-03-27T16:16:22.467Z,2.50
2019-03-27T16:20:28.040Z,2.30
2019-03-27T16:24:33.562Z,2.73
2019-03-27T16:28:39.334Z,2.90
2019-03-27T16:32:44.842Z,2.37
2019-03-27T16:36:50.562Z,2.70
2019-03-27T16:40:56.038Z,2.80
2019-03-27T16:45:02.309Z,2.03
2019-03-27T16:49:08.315Z,2.33
2019-03-27T16:53:14.039Z,2.63
2019-03-27T16:57:19.518Z,2.17
2019-03-27T17:01:25.307Z,1.93
2019-03-27T17:05:30.845Z,2.63
2019-03-27T17:09:36.542Z,2.90
2019-03-27T17:13:42.259Z,2.57
2019-03-27T17:17:47.931Z,2.50
2019-03-27T17:21:53.395Z,1.90
2019-03-27T17:25:59.151Z,2.37
2019-03-27T17:30:05.542Z,1.80
2019-03-27T17:34:11.119Z,2.17
2019-03-27T17:38:16.761Z,2.60
2019-03-27T17:42:22.239Z,2.50
2019-03-27T17:46:28.171Z,1.70
2019-03-27T17:50:33.787Z,2.10
2019-03-27T17:54:39.287Z,2.90
2019-03-27T17:58:44.783Z,2.80
2019-03-27T18:02:50.408Z,2.63
2019-03-27T18:06:55.912Z,2.50
2019-03-27T18:11:01.588Z,3.43
2019-03-27T18:15:07.729Z,3.40
2019-03-27T18:19:13.162Z,3.53
2019-03-27T18:23:18.808Z,3.33
2019-03-27T18:27:24.277Z,3.13
2019-03-27T18:31:29.946Z,3.30
2019-03-27T18:35:35.778Z,2.70
2019-03-27T18:39:41.559Z,5.53
2019-03-27T18:43:47.051Z,3.90
2019-03-27T18:47:52.820Z,4.10
2019-03-27T18:51:59.814Z,4.47
2019-03-27T18:56:05.988Z,3.50
2019-03-27T19:00:11.815Z,3.37
2019-03-27T19:04:17.422Z,4.27
2019-03-27T19:08:22.938Z,4.30
2019-03-27T19:12:28.637Z,6.10
2019-03-27T19:16:34.114Z,4.57
2019-03-27T19:20:39.761Z,4.10
2019-03-27T19:24:45.329Z,4.00
2019-03-27T19:28:53.791Z,4.50
2019-03-27T19:32:57.986Z,4.90
2019-03-27T19:37:03.762Z,4.60
2019-03-27T19:41:09.292Z,6.03
2019-03-27T19:45:15.014Z,5.50
2019-03-27T19:49:20.502Z,4.80
2019-03-27T19:53:26.039Z,4.37
2019-03-27T19:57:31.510Z,4.90
2019-03-27T20:01:37.002Z,5.30
2019-03-27T20:05:42.475Z,7.00
2019-03-27T20:09:48.174Z,5.27
2019-03-27T20:13:53.790Z,5.43
2019-03-27T20:17:59.302Z,4.73
2019-03-27T20:22:04.864Z,5.07
2019-03-27T20:26:10.468Z,5.77
2019-03-27T20:30:16.731Z,3.93
2019-03-27T20:34:22.871Z,4.10
2019-03-27T20:38:28.723Z,4.87
2019-03-27T20:42:36.002Z,5.00
2019-03-27T20:46:41.900Z,4.77
2019-03-27T20:50:47.416Z,4.30
2019-03-27T20:54:55.361Z,4.03
2019-03-27T20:59:01.437Z,4.60
2019-03-27T21:03:07.684Z,5.13
2019-03-27T21:07:13.316Z,4.17
2019-03-27T21:11:18.846Z,4.07
2019-03-27T21:15:24.298Z,4.23
2019-03-27T21:19:29.877Z,5.00
2019-03-27T21:23:36.343Z,4.97
2019-03-27T21:27:41.818Z,4.57
2019-03-27T21:31:48.260Z,5.20
2019-03-27T21:35:53.855Z,5.33
2019-03-27T21:40:00.466Z,4.03
2019-03-27T21:44:07.061Z,4.20
2019-03-27T21:48:12.640Z,3.17
2019-03-27T21:52:18.134Z,4.97
2019-03-27T21:56:23.593Z,4.07
2019-03-27T22:00:39.767Z,4.30
2019-03-27T22:04:45.208Z,3.37
2019-03-27T22:08:50.689Z,4.47
2019-03-27T22:12:56.281Z,3.43
2019-03-27T22:17:01.722Z,3.93
2019-03-27T22:21:07.289Z,4.13
2019-03-27T22:25:12.885Z,3.20
2019-03-27T22:29:18.348Z,3.17
2019-03-27T22:33:23.882Z,3.27
2019-03-27T22:37:29.414Z,4.07
2019-03-27T22:41:34.854Z,3.27
2019-03-27T22:45:40.371Z,3.03
2019-03-27T22:49:45.909Z,4.03
2019-03-27T22:53:51.348Z,4.17
2019-03-27T22:57:56.954Z,3.73
2019-03-27T23:02:02.647Z,3.87
2019-03-27T23:06:08.095Z,3.60
2019-03-27T23:10:13.895Z,4.13
2019-03-27T23:14:19.321Z,2.57
2019-03-27T23:18:24.919Z,3.20
2019-03-27T23:22:30.454Z,3.93
2019-03-27T23:26:36.264Z,3.87
2019-03-27T23:30:41.773Z,3.03
2019-03-27T23:34:47.232Z,3.10
2019-03-27T23:38:52.690Z,4.27
2019-03-27T23:42:59.068Z,3.57
2019-03-27T23:47:05.247Z,3.27
2019-03-27T23:51:10.822Z,3.20
2019-03-27T23:55:16.254Z,2.60
2019-03-27T23:59:21.727Z,2.90
